createdAt,value
2023-03-02T00:02:04.032Z,61.60
2023-03-02T00:04:37.626Z,58.70
2023-03-02T00:07:11.199Z,94.40
2023-03-02T00:09:39.484Z,117.00
2023-03-02T00:12:07.936Z,128.40
2023-03-02T00:14:37.430Z,88.00
2023-03-02T00:17:07.422Z,78.80
2023-03-02T00:19:36.006Z,68.80
2023-03-02T00:22:04.049Z,67.80
2023-03-02T00:24:31.709Z,49.20
2023-03-02T00:26:59.191Z,34.30
2023-03-02T00:29:26.980Z,52.00
2023-03-02T00:31:54.544Z,48.80
2023-03-02T00:34:22.154Z,43.10
2023-03-02T00:36:49.928Z,50.30
2023-03-02T00:39:19.523Z,52.10
2023-03-02T00:41:48.320Z,48.20
2023-03-02T00:44:17.115Z,52.60
2023-03-02T00:46:45.150Z,56.30
2023-03-02T00:49:12.830Z,49.90
2023-03-02T00:51:40.210Z,51.40
2023-03-02T00:54:07.652Z,52.10
2023-03-02T00:56:35.308Z,53.10
2023-03-02T00:59:06.106Z,50.70
2023-03-02T01:01:33.876Z,51.90
2023-03-02T01:04:01.354Z,53.40
2023-03-02T01:06:28.844Z,47.30
2023-03-02T01:08:56.387Z,36.40
2023-03-02T01:11:23.835Z,47.90
2023-03-02T01:13:51.811Z,49.60
2023-03-02T01:16:19.389Z,53.50
2023-03-02T01:18:46.926Z,53.30
2023-03-02T01:21:15.759Z,49.80
2023-03-02T01:23:43.445Z,52.50
2023-03-02T01:26:10.955Z,56.30
2023-03-02T01:28:38.439Z,43.20
2023-03-02T01:31:05.909Z,50.80
2023-03-02T01:33:33.431Z,53.50
2023-03-02T01:36:01.076Z,52.70
2023-03-02T01:38:28.822Z,61.20
2023-03-02T01:40:56.579Z,51.60
2023-03-02T01:43:24.343Z,56.00
2023-03-02T01:45:59.166Z,51.90
2023-03-02T01:48:46.837Z,52.70
2023-03-02T01:51:20.413Z,58.00
2023-03-02T01:56:26.303Z,55.50
2023-03-02T01:59:01.585Z,52.80
2023-03-02T02:01:35.889Z,45.30
2023-03-02T02:04:04.233Z,54.00
2023-03-02T02:06:50.617Z,53.70
2023-03-02T02:09:20.706Z,56.50
2023-03-02T02:11:48.644Z,54.60
2023-03-02T02:14:16.196Z,51.30
2023-03-02T02:16:43.897Z,53.80
2023-03-02T02:19:38.307Z,61.60
2023-03-02T02:22:05.896Z,53.50
2023-03-02T02:24:42.351Z,53.50
2023-03-02T02:27:11.313Z,52.60
2023-03-02T02:29:49.397Z,54.90
2023-03-02T02:32:23.278Z,56.10
2023-03-02T02:34:55.985Z,52.50
2023-03-02T02:37:33.366Z,52.00
2023-03-02T02:40:06.899Z,54.00
2023-03-02T02:42:42.595Z,52.30
2023-03-02T02:45:40.039Z,50.00
2023-03-02T02:48:22.641Z,56.90
2023-03-02T02:50:59.684Z,51.80
2023-03-02T02:53:58.191Z,50.10
2023-03-02T02:56:34.649Z,45.00
2023-03-02T02:59:16.412Z,46.30
2023-03-02T03:01:47.140Z,47.00
2023-03-02T03:04:22.186Z,52.90
2023-03-02T03:06:55.049Z,51.70
2023-03-02T03:09:23.401Z,49.50
2023-03-02T03:12:22.161Z,54.20
2023-03-02T03:14:50.884Z,49.50
2023-03-02T03:17:18.774Z,50.60
2023-03-02T03:20:05.604Z,51.20
2023-03-02T03:22:37.564Z,50.50
2023-03-02T03:25:06.271Z,46.30
2023-03-02T03:27:33.688Z,44.70
2023-03-02T03:30:01.497Z,46.40
2023-03-02T03:32:29.759Z,44.00
2023-03-02T03:34:57.259Z,48.90
2023-03-02T03:37:27.896Z,50.10
2023-03-02T03:39:55.640Z,42.50
2023-03-02T03:42:23.646Z,47.20
2023-03-02T03:44:51.174Z,45.20
2023-03-02T03:47:19.296Z,43.70
2023-03-02T03:49:47.013Z,45.90
2023-03-02T03:52:14.655Z,50.30
2023-03-02T03:54:42.098Z,48.00
2023-03-02T03:57:11.626Z,46.40
2023-03-02T03:59:39.178Z,43.60
2023-03-02T04:02:07.608Z,43.80
2023-03-02T04:04:37.718Z,50.70
2023-03-02T04:07:14.324Z,49.10
2023-03-02T04:09:43.615Z,49.50
2023-03-02T04:12:13.091Z,43.90
2023-03-02T04:14:45.117Z,46.50
2023-03-02T04:17:12.744Z,49.10
2023-03-02T04:19:43.108Z,49.30
2023-03-02T04:22:10.830Z,49.40
2023-03-02T04:24:38.388Z,50.20
2023-03-02T04:27:05.906Z,44.60
2023-03-02T04:29:36.480Z,44.20
2023-03-02T04:32:06.011Z,46.90
2023-03-02T04:34:34.383Z,45.50
2023-03-02T04:37:02.529Z,47.70
2023-03-02T04:39:29.996Z,35.50
2023-03-02T04:41:57.380Z,27.60
2023-03-02T04:44:25.015Z,32.90
2023-03-02T04:46:52.565Z,36.30
2023-03-02T04:49:20.673Z,43.20
2023-03-02T04:51:49.112Z,29.30
2023-03-02T04:54:26.089Z,38.60
2023-03-02T04:56:54.392Z,42.60
2023-03-02T04:59:26.566Z,47.30
2023-03-02T05:01:57.742Z,39.20
2023-03-02T05:04:27.050Z,44.30
2023-03-02T05:06:54.819Z,26.00
2023-03-02T05:09:26.689Z,37.20
2023-03-02T05:11:56.585Z,50.60
2023-03-02T05:14:25.262Z,49.60
2023-03-02T05:16:53.226Z,49.20
2023-03-02T05:19:20.750Z,43.20
2023-03-02T05:21:48.218Z,48.80
2023-03-02T05:24:16.309Z,33.70
2023-03-02T05:26:43.791Z,33.50
2023-03-02T05:29:11.300Z,26.60
2023-03-02T05:31:42.632Z,39.90
2023-03-02T05:34:13.101Z,45.20
2023-03-02T05:36:40.513Z,42.10
2023-03-02T05:39:08.932Z,33.80
2023-03-02T05:41:37.523Z,36.80
2023-03-02T05:44:08.995Z,37.00
2023-03-02T05:46:36.892Z,34.80
2023-03-02T05:49:04.415Z,31.50
2023-03-02T05:51:31.820Z,34.00
2023-03-02T05:53:59.246Z,41.40
2023-03-02T05:56:26.621Z,49.10
2023-03-02T05:58:54.350Z,46.70
2023-03-02T06:01:21.797Z,46.90
2023-03-02T06:03:49.134Z,32.90
2023-03-02T06:06:16.878Z,41.20
2023-03-02T06:08:44.954Z,42.00
2023-03-02T06:11:12.603Z,41.00
2023-03-02T06:13:40.327Z,36.10
2023-03-02T06:16:08.819Z,42.40
2023-03-02T06:18:40.885Z,33.00
2023-03-02T06:21:09.343Z,41.60
2023-03-02T06:23:36.845Z,27.70
2023-03-02T06:26:10.870Z,40.40
2023-03-02T06:28:51.504Z,33.90
2023-03-02T06:31:20.197Z,36.40
2023-03-02T06:33:47.683Z,35.90
2023-03-02T06:36:16.500Z,34.00
2023-03-02T06:38:44.135Z,25.70
2023-03-02T06:41:11.519Z,25.20
2023-03-02T06:43:39.093Z,26.70
2023-03-02T06:46:06.761Z,42.40
2023-03-02T06:48:34.332Z,30.50
2023-03-02T06:51:01.790Z,34.10
2023-03-02T06:53:29.528Z,35.20
2023-03-02T06:55:57.112Z,37.10
2023-03-02T06:58:24.989Z,33.90
2023-03-02T07:00:52.808Z,38.00
2023-03-02T07:03:20.820Z,37.40
2023-03-02T07:05:49.646Z,38.50
2023-03-02T07:08:17.727Z,36.20
2023-03-02T07:10:45.249Z,44.30
2023-03-02T07:13:12.614Z,47.10
2023-03-02T07:15:40.652Z,38.90
2023-03-02T07:18:08.531Z,41.60
2023-03-02T07:20:36.248Z,50.30
2023-03-02T07:23:05.372Z,47.10
2023-03-02T07:25:33.164Z,46.30
2023-03-02T07:28:00.788Z,43.30
2023-03-02T07:30:28.418Z,37.60
2023-03-02T07:32:55.918Z,52.00
2023-03-02T07:35:23.416Z,51.30
2023-03-02T07:37:52.331Z,39.20
2023-03-02T07:40:20.202Z,40.50
2023-03-02T07:42:48.164Z,38.90
2023-03-02T07:45:16.621Z,38.80
2023-03-02T07:47:44.190Z,34.40
2023-03-02T07:50:12.241Z,36.70
2023-03-02T07:52:40.293Z,43.80
2023-03-02T07:55:09.026Z,43.50
2023-03-02T07:57:37.212Z,36.00
2023-03-02T08:00:06.075Z,38.50
2023-03-02T08:02:41.446Z,34.60
2023-03-02T08:05:11.091Z,37.70
2023-03-02T08:07:40.125Z,33.50
2023-03-02T08:10:08.594Z,33.60
2023-03-02T08:12:36.066Z,32.40
2023-03-02T08:15:05.117Z,38.30
2023-03-02T08:17:32.603Z,35.00
2023-03-02T08:20:00.333Z,33.30
2023-03-02T08:22:27.911Z,38.70
2023-03-02T08:24:55.596Z,30.60
2023-03-02T08:27:23.224Z,32.00
2023-03-02T08:29:50.958Z,29.60
2023-03-02T08:32:18.487Z,30.80
2023-03-02T08:34:50.782Z,36.20
2023-03-02T08:37:19.388Z,34.10
2023-03-02T08:39:47.021Z,32.00
2023-03-02T08:42:14.535Z,39.70
2023-03-02T08:44:41.969Z,26.60
2023-03-02T08:47:09.893Z,25.00
2023-03-02T08:49:37.665Z,22.40
2023-03-02T08:52:05.440Z,28.70
2023-03-02T08:54:34.147Z,32.20
2023-03-02T08:57:02.227Z,31.90
2023-03-02T08:59:29.885Z,29.80
2023-03-02T09:01:59.588Z,18.30
2023-03-02T09:04:27.201Z,26.90
2023-03-02T09:06:55.000Z,29.50
2023-03-02T09:09:23.037Z,25.90
2023-03-02T09:11:50.783Z,26.00
2023-03-02T09:14:18.236Z,23.80
2023-03-02T09:16:46.534Z,22.40
2023-03-02T09:19:14.206Z,31.80
2023-03-02T09:21:41.664Z,20.80
2023-03-02T09:24:09.252Z,13.40
2023-03-02T09:26:38.596Z,15.50
2023-03-02T09:29:06.950Z,21.50
2023-03-02T09:31:36.470Z,21.70
2023-03-02T09:34:04.823Z,18.80
2023-03-02T09:36:32.511Z,22.60
2023-03-02T09:39:00.159Z,12.40
2023-03-02T09:41:50.192Z,20.60
2023-03-02T09:45:08.048Z,18.80
2023-03-02T09:50:36.702Z,22.10
2023-03-02T09:53:21.037Z,17.30
2023-03-02T09:56:01.830Z,17.80
2023-03-02T09:58:41.785Z,17.80
2023-03-02T10:01:16.778Z,15.00
2023-03-02T10:04:05.176Z,17.50
2023-03-02T10:06:33.008Z,14.10
2023-03-02T10:09:00.694Z,15.50
2023-03-02T10:11:33.992Z,15.00
2023-03-02T10:14:26.209Z,17.80
2023-03-02T10:17:27.824Z,21.70
2023-03-02T10:20:08.279Z,15.30
2023-03-02T10:22:44.198Z,14.80
2023-03-02T10:25:34.500Z,11.70
2023-03-02T10:28:23.764Z,12.20
2023-03-02T10:31:07.518Z,13.00
2023-03-02T10:33:38.583Z,9.90
2023-03-02T10:36:35.374Z,19.40
2023-03-02T10:39:11.375Z,11.90
2023-03-02T10:41:51.708Z,12.70
2023-03-02T10:44:31.437Z,13.40
2023-03-02T10:46:59.003Z,13.50
2023-03-02T10:49:32.285Z,12.40
2023-03-02T10:52:15.198Z,11.80
2023-03-02T10:54:42.946Z,15.80
2023-03-02T10:57:36.335Z,9.80
2023-03-02T11:00:17.873Z,11.50
2023-03-02T11:03:21.508Z,12.10
2023-03-02T11:05:49.662Z,12.20
2023-03-02T11:08:20.712Z,12.40
2023-03-02T11:11:01.217Z,13.60
2023-03-02T11:13:36.082Z,8.60
2023-03-02T11:16:18.780Z,11.40
2023-03-02T11:19:00.552Z,11.70
2023-03-02T11:22:06.178Z,10.00
2023-03-02T11:24:55.735Z,12.40
2023-03-02T11:27:34.884Z,11.20
2023-03-02T11:30:24.269Z,11.40
2023-03-02T11:33:01.464Z,9.70
2023-03-02T11:35:36.740Z,8.30
2023-03-02T11:38:22.402Z,8.70
2023-03-02T11:41:05.101Z,8.20
2023-03-02T11:46:10.881Z,10.10
2023-03-02T11:48:49.639Z,10.60
2023-03-02T11:51:47.073Z,8.70
2023-03-02T11:54:59.634Z,8.00
2023-03-02T11:57:39.840Z,12.10
2023-03-02T12:00:41.085Z,9.50
2023-03-02T12:03:15.685Z,10.50
2023-03-02T12:06:07.869Z,8.70
2023-03-02T12:08:40.367Z,11.60
2023-03-02T12:11:36.381Z,11.40
2023-03-02T12:14:39.634Z,10.60
2023-03-02T12:17:31.616Z,15.20
2023-03-02T12:20:24.655Z,11.40
2023-03-02T12:22:54.335Z,8.80
2023-03-02T12:25:29.693Z,9.60
2023-03-02T12:27:58.449Z,10.80
2023-03-02T12:30:30.645Z,6.90
2023-03-02T12:33:03.603Z,18.30
2023-03-02T12:38:17.768Z,11.30
2023-03-02T12:41:31.086Z,11.20
2023-03-02T12:44:52.266Z,11.60
2023-03-02T12:47:28.043Z,8.70
2023-03-02T12:50:22.794Z,8.90
2023-03-02T12:53:17.633Z,8.00
2023-03-02T12:55:47.536Z,13.50
2023-03-02T12:58:24.459Z,8.10
2023-03-02T13:00:57.380Z,7.20
2023-03-02T13:06:16.189Z,10.10
2023-03-02T13:08:48.831Z,8.90
2023-03-02T13:11:55.135Z,8.20
2023-03-02T13:14:29.111Z,10.20
2023-03-02T13:17:03.990Z,15.50
2023-03-02T13:19:34.090Z,8.20
2023-03-02T13:22:04.441Z,12.60
2023-03-02T13:24:45.785Z,9.30
2023-03-02T13:27:21.836Z,9.40
2023-03-02T13:29:55.875Z,8.70
2023-03-02T13:32:29.179Z,7.00
2023-03-02T13:35:03.077Z,9.10
2023-03-02T13:37:44.182Z,10.90
2023-03-02T13:40:22.219Z,9.10
2023-03-02T13:42:51.605Z,8.00
2023-03-02T13:45:33.703Z,9.10
2023-03-02T13:48:18.105Z,8.80
2023-03-02T13:51:18.395Z,13.10
2023-03-02T13:54:05.842Z,8.50
2023-03-02T13:56:39.457Z,10.00
2023-03-02T13:59:18.517Z,8.10
2023-03-02T14:01:47.670Z,10.00
2023-03-02T14:04:24.351Z,8.10
2023-03-02T14:06:55.437Z,12.00
2023-03-02T14:09:24.237Z,7.70
2023-03-02T14:11:56.136Z,9.00
2023-03-02T14:14:29.851Z,6.10
2023-03-02T14:16:58.679Z,10.70
2023-03-02T14:19:27.471Z,14.70
2023-03-02T14:21:56.350Z,9.20
2023-03-02T14:24:25.160Z,12.40
2023-03-02T14:26:54.101Z,10.20
2023-03-02T14:29:30.439Z,7.20
2023-03-02T14:32:06.851Z,13.50
2023-03-02T14:34:37.221Z,11.40
2023-03-02T14:37:18.382Z,8.20
2023-03-02T14:39:55.620Z,8.80
2023-03-02T14:42:24.660Z,9.40
2023-03-02T14:44:53.679Z,8.40
2023-03-02T14:47:22.588Z,11.80
2023-03-02T14:49:52.047Z,8.50
2023-03-02T14:52:39.302Z,11.00
2023-03-02T14:55:28.153Z,11.80
2023-03-02T14:58:24.355Z,9.10
2023-03-02T15:00:53.145Z,10.80
2023-03-02T15:03:26.068Z,9.50
2023-03-02T15:08:30.908Z,11.00
2023-03-02T15:10:59.774Z,9.40
2023-03-02T15:13:28.768Z,9.00
2023-03-02T15:15:57.647Z,9.20
2023-03-02T15:18:26.564Z,6.90
2023-03-02T15:20:55.468Z,11.80
2023-03-02T15:23:24.224Z,10.70
2023-03-02T15:25:53.067Z,11.60
2023-03-02T15:28:21.879Z,10.00
2023-03-02T15:30:50.852Z,15.50
2023-03-02T15:33:19.631Z,14.00
2023-03-02T15:35:55.401Z,11.00
2023-03-02T15:38:25.198Z,9.30
2023-03-02T15:40:53.992Z,13.70
2023-03-02T15:43:24.549Z,8.30
2023-03-02T15:45:53.725Z,11.50
2023-03-02T15:48:22.493Z,12.60
2023-03-02T15:51:02.934Z,14.90
2023-03-02T15:53:37.731Z,10.10
2023-03-02T15:56:16.210Z,9.00
2023-03-02T15:58:50.884Z,13.70
2023-03-02T16:01:19.710Z,16.20
2023-03-02T16:03:48.470Z,59.20
2023-03-02T16:06:17.298Z,58.80
2023-03-02T16:08:46.265Z,56.10
2023-03-02T16:11:18.779Z,60.80
2023-03-02T16:13:47.705Z,51.50
2023-03-02T16:16:16.558Z,50.30
2023-03-02T16:18:55.079Z,58.80
2023-03-02T16:21:25.931Z,62.80
2023-03-02T16:23:56.564Z,54.40
2023-03-02T16:26:25.423Z,55.30
2023-03-02T16:28:54.232Z,59.80
2023-03-02T16:31:26.949Z,53.90
2023-03-02T16:33:57.888Z,35.70
2023-03-02T16:36:26.740Z,35.60
2023-03-02T16:38:55.620Z,37.60
2023-03-02T16:41:24.729Z,38.90
2023-03-02T16:43:59.432Z,44.70
2023-03-02T16:46:31.751Z,37.00
2023-03-02T16:49:00.561Z,38.40
2023-03-02T16:51:29.513Z,34.60
2023-03-02T16:53:58.802Z,27.90
2023-03-02T16:56:27.675Z,29.30
2023-03-02T16:58:58.265Z,30.40
2023-03-02T17:01:29.592Z,28.30
2023-03-02T17:03:58.679Z,30.80
2023-03-02T17:06:27.783Z,28.60
2023-03-02T17:08:56.630Z,31.40
2023-03-02T17:11:25.696Z,27.50
2023-03-02T17:13:54.491Z,31.40
2023-03-02T17:16:23.417Z,30.00
2023-03-02T17:18:52.319Z,34.60
2023-03-02T17:21:21.637Z,30.10
2023-03-02T17:23:50.530Z,25.50
2023-03-02T17:26:19.470Z,31.60
2023-03-02T17:28:48.739Z,33.30
2023-03-02T17:31:17.773Z,27.70
2023-03-02T17:33:46.710Z,30.90
2023-03-02T17:36:16.027Z,28.80
2023-03-02T17:38:44.832Z,25.30
2023-03-02T17:41:13.658Z,24.10
2023-03-02T17:43:42.615Z,31.10
2023-03-02T17:46:24.957Z,36.60
2023-03-02T17:48:57.732Z,41.40
2023-03-02T17:51:28.899Z,33.00
2023-03-02T17:53:57.700Z,40.70
2023-03-02T17:56:28.804Z,36.30
2023-03-02T17:59:05.452Z,39.00
2023-03-02T18:01:34.725Z,46.80
2023-03-02T18:04:05.274Z,43.00
2023-03-02T18:06:34.839Z,50.00
2023-03-02T18:09:04.179Z,45.00
2023-03-02T18:11:33.611Z,50.90
2023-03-02T18:14:02.599Z,41.10
2023-03-02T18:16:33.491Z,41.60
2023-03-02T18:19:05.350Z,39.40
2023-03-02T18:21:36.648Z,46.50
2023-03-02T18:24:08.519Z,42.70
2023-03-02T18:26:38.086Z,34.70
2023-03-02T18:29:07.139Z,33.00
2023-03-02T18:31:37.008Z,28.40
2023-03-02T18:34:06.041Z,29.90
2023-03-02T18:36:35.025Z,30.30
2023-03-02T18:39:04.669Z,39.40
2023-03-02T18:41:33.917Z,36.40
2023-03-02T18:44:03.912Z,37.20
2023-03-02T18:46:33.209Z,37.30
2023-03-02T18:49:04.985Z,34.80
2023-03-02T18:51:33.817Z,35.90
2023-03-02T18:54:02.647Z,40.00
2023-03-02T18:56:31.405Z,42.30
2023-03-02T18:59:00.245Z,37.40
2023-03-02T19:01:32.255Z,39.40
2023-03-02T19:04:02.684Z,41.50
2023-03-02T19:06:33.321Z,44.20
2023-03-02T19:09:02.495Z,47.90
2023-03-02T19:11:31.375Z,47.70
2023-03-02T19:14:00.187Z,48.20
2023-03-02T19:16:29.706Z,42.90
2023-03-02T19:18:58.631Z,50.50
2023-03-02T19:21:28.176Z,52.10
2023-03-02T19:23:59.219Z,47.10
2023-03-02T19:26:29.024Z,56.00
2023-03-02T19:29:00.573Z,48.70
2023-03-02T19:31:31.663Z,54.10
2023-03-02T19:34:01.073Z,43.60
2023-03-02T19:36:29.875Z,43.50
2023-03-02T19:39:00.034Z,47.50
2023-03-02T19:41:28.794Z,47.50
2023-03-02T19:43:58.399Z,42.00
2023-03-02T19:46:27.297Z,39.70
2023-03-02T19:48:56.268Z,37.20
2023-03-02T19:51:25.470Z,45.80
2023-03-02T19:53:55.159Z,40.70
2023-03-02T19:56:32.917Z,45.40
2023-03-02T19:59:02.073Z,42.40
2023-03-02T20:01:31.533Z,47.30
2023-03-02T20:04:01.017Z,48.40
2023-03-02T20:06:34.257Z,42.40
2023-03-02T20:09:07.142Z,51.90
2023-03-02T20:11:36.291Z,45.50
2023-03-02T20:14:05.309Z,51.00
2023-03-02T20:16:36.005Z,45.10
2023-03-02T20:19:06.271Z,58.20
2023-03-02T20:21:39.574Z,66.30
2023-03-02T20:24:08.875Z,78.70
2023-03-02T20:26:37.970Z,77.80
2023-03-02T20:31:40.642Z,67.80
2023-03-02T20:34:12.718Z,73.40
2023-03-02T20:36:41.843Z,60.90
2023-03-02T20:39:26.837Z,59.90
2023-03-02T20:42:11.308Z,51.00
2023-03-02T20:44:40.224Z,52.70
2023-03-02T20:47:14.226Z,55.60
2023-03-02T20:49:43.770Z,56.80
2023-03-02T20:52:18.184Z,57.10
2023-03-02T20:54:47.149Z,59.00
2023-03-02T20:57:20.425Z,48.10
2023-03-02T20:59:50.362Z,54.40
2023-03-02T21:02:20.530Z,53.50
2023-03-02T21:04:49.487Z,51.60
2023-03-02T21:07:18.537Z,49.40
2023-03-02T21:09:47.531Z,48.00
2023-03-02T21:12:16.769Z,47.60
2023-03-02T21:14:45.723Z,59.50
2023-03-02T21:17:14.907Z,54.80
2023-03-02T21:19:43.824Z,50.20
2023-03-02T21:22:12.769Z,49.40
2023-03-02T21:24:44.387Z,47.40
2023-03-02T21:27:13.762Z,50.90
2023-03-02T21:29:42.687Z,52.70
2023-03-02T21:32:11.678Z,50.70
2023-03-02T21:34:40.589Z,58.30
2023-03-02T21:37:09.371Z,63.70
2023-03-02T21:39:38.630Z,55.90
2023-03-02T21:42:08.024Z,51.10
2023-03-02T21:44:36.953Z,49.50
2023-03-02T21:47:05.725Z,45.60
2023-03-02T21:49:34.545Z,49.70
2023-03-02T21:52:04.293Z,52.50
2023-03-02T21:54:33.015Z,55.70
2023-03-02T21:57:01.825Z,54.30
2023-03-02T21:59:31.012Z,49.60
2023-03-02T22:01:59.907Z,47.10
2023-03-02T22:04:28.784Z,47.20
2023-03-02T22:06:57.495Z,51.90
2023-03-02T22:09:26.354Z,41.60
2023-03-02T22:11:55.258Z,43.80
2023-03-02T22:14:24.917Z,46.50
2023-03-02T22:16:53.610Z,49.70
2023-03-02T22:19:30.689Z,46.40
2023-03-02T22:22:03.422Z,59.40
2023-03-02T22:24:34.559Z,54.70
2023-03-02T22:27:31.825Z,56.90
2023-03-02T22:30:03.308Z,57.50
2023-03-02T22:32:38.696Z,49.20
2023-03-02T22:35:26.127Z,44.80
2023-03-02T22:38:20.441Z,49.50
2023-03-02T22:40:49.181Z,44.20
2023-03-02T22:43:34.487Z,47.80
2023-03-02T22:46:15.804Z,47.90
2023-03-02T22:48:47.923Z,47.50
2023-03-02T22:51:23.431Z,55.50
2023-03-02T22:53:55.713Z,51.90
2023-03-02T22:56:29.966Z,50.60
2023-03-02T22:59:22.766Z,47.30
2023-03-02T23:01:54.497Z,44.80
2023-03-02T23:04:26.673Z,44.90
2023-03-02T23:07:00.282Z,46.60
2023-03-02T23:09:36.068Z,44.80
2023-03-02T23:12:27.647Z,44.30
2023-03-02T23:14:59.927Z,42.20
2023-03-02T23:17:40.138Z,45.20
2023-03-02T23:20:13.676Z,41.30
2023-03-02T23:22:43.471Z,43.50
2023-03-02T23:25:14.598Z,43.60
2023-03-02T23:27:43.430Z,38.70
2023-03-02T23:30:12.729Z,45.90
2023-03-02T23:32:41.613Z,47.10
2023-03-02T23:35:10.490Z,49.20
2023-03-02T23:37:39.254Z,47.30
2023-03-02T23:40:09.686Z,42.40
2023-03-02T23:42:38.557Z,38.80
2023-03-02T23:45:08.901Z,39.30
2023-03-02T23:47:37.771Z,39.90
2023-03-02T23:50:08.692Z,37.00
2023-03-02T23:52:39.122Z,47.60
2023-03-02T23:55:09.326Z,48.50
2023-03-02T23:57:38.199Z,36.70
